Time;durP1;ratioP1;P1;durP2;ratioP2;P2;SDS_P1;SDS_P2;PMS_P1;PMS_P2;Temp;Humidity;BMP_temperature;BMP_pressure;BME280_temperature;BME280_humidity;BME280_pressure;Samples;Min_cycle;Max_cycle;Signal;HPM_P1;HPM_P2
2022/05/18 00:01:07;;;;;;;6.40;5.80;;;;;;;;;;5092072;28;20039;-83
2022/05/18 00:03:36;;;;;;;7.32;6.60;;;;;;;;;;5125746;28;20089;-84
2022/05/18 00:06:04;;;;;;;7.03;5.77;;;;;;;;;;5091278;28;20024;-85
2022/05/18 00:08:36;;;;;;;6.85;5.95;;;;;;;;;;5091888;28;20767;-86
2022/05/18 00:11:13;;;;;;;6.60;5.35;;;;;;;;;;5089455;28;20044;-87
2022/05/18 00:13:40;;;;;;;6.95;6.35;;;;;;;;;;5085879;28;20036;-86
2022/05/18 00:16:06;;;;;;;7.38;5.68;;;;;;;;;;5092470;28;20536;-87
2022/05/18 00:18:32;;;;;;;6.70;6.00;;;;;;;;;;5091051;28;20026;-87
2022/05/18 00:20:59;;;;;;;6.88;6.18;;;;;;;;;;5092610;28;20463;-87
2022/05/18 00:23:24;;;;;;;7.47;6.68;;;;;;;;;;5091153;28;20020;-87
2022/05/18 00:25:50;;;;;;;6.72;6.03;;;;;;;;;;5092465;28;20020;-87
2022/05/18 00:28:17;;;;;;;5.25;4.68;;;;;;;;;;5088697;28;20384;-87
2022/05/18 00:30:43;;;;;;;6.93;5.40;;;;;;;;;;5093052;28;20028;-88
2022/05/18 00:33:10;;;;;;;6.45;5.45;;;;;;;;;;5092601;28;20027;-88
2022/05/18 00:35:38;;;;;;;6.55;5.68;;;;;;;;;;5085480;28;20024;-89
2022/05/18 00:38:04;;;;;;;5.72;4.80;;;;;;;;;;5091062;28;20028;-89
2022/05/18 00:40:31;;;;;;;5.70;5.07;;;;;;;;;;5088291;28;20028;-88
2022/05/18 00:42:57;;;;;;;6.45;5.35;;;;;;;;;;5090413;28;20032;-86
2022/05/18 00:45:23;;;;;;;5.40;4.63;;;;;;;;;;5090399;28;20023;-86
2022/05/18 00:47:49;;;;;;;6.10;4.47;;;;;;;;;;5090148;28;20024;-87
2022/05/18 00:50:35;;;;;;;5.00;4.20;;;;;;;;;;5090316;28;20047;-85
2022/05/18 00:53:26;;;;;;;4.43;3.95;;;;;;;;;;5083545;28;20392;-88
2022/05/18 00:55:56;;;;;;;4.18;3.25;;;;;;;;;;5089079;28;20057;-85
2022/05/18 00:58:31;;;;;;;4.68;3.70;;;;;;;;;;5088418;28;20024;-86
2022/05/18 01:00:57;;;;;;;4.20;3.10;;;;;;;;;;5093559;28;20032;-87
2022/05/18 01:03:27;;;;;;;3.67;2.90;;;;;;;;;;5090934;28;20047;-86
2022/05/18 01:06:02;;;;;;;3.72;2.67;;;;;;;;;;5095492;28;20489;-87
2022/05/18 01:08:39;;;;;;;2.97;2.55;;;;;;;;;;5094895;28;20035;-88
2022/05/18 01:11:05;;;;;;;3.58;2.67;;;;;;;;;;5092511;28;20030;-85
2022/05/18 01:13:31;;;;;;;3.15;2.70;;;;;;;;;;5092019;28;20023;-88
2022/05/18 01:15:56;;;;;;;3.50;3.00;;;;;;;;;;5092435;28;20050;-86
2022/05/18 01:18:23;;;;;;;3.45;2.88;;;;;;;;;;5095415;28;20023;-85
2022/05/18 01:20:52;;;;;;;5.35;3.33;;;;;;;;;;5095709;28;21438;-87
2022/05/18 01:23:26;;;;;;;5.32;3.15;;;;;;;;;;5096168;28;20123;-85
2022/05/18 01:26:07;;;;;;;3.50;3.20;;;;;;;;;;5094232;28;20479;-85
2022/05/18 01:28:39;;;;;;;4.90;3.17;;;;;;;;;;5092574;28;20124;-86
2022/05/18 01:31:05;;;;;;;4.38;3.65;;;;;;;;;;5096442;28;20032;-87
2022/05/18 01:33:33;;;;;;;4.88;3.83;;;;;;;;;;5095130;28;20233;-86
2022/05/18 01:35:58;;;;;;;4.97;4.18;;;;;;;;;;5088209;28;20028;-87
2022/05/18 01:38:24;;;;;;;4.35;3.78;;;;;;;;;;5094985;28;20446;-87
2022/05/18 01:41:15;;;;;;;4.80;4.07;;;;;;;;;;5095413;28;20023;-87
2022/05/18 01:43:47;;;;;;;5.55;3.67;;;;;;;;;;5095214;28;20066;-87
2022/05/18 01:46:15;;;;;;;4.18;2.83;;;;;;;;;;5093716;28;20123;-87
2022/05/18 01:48:45;;;;;;;2.45;2.05;;;;;;;;;;5086953;28;20073;-87
2022/05/18 01:51:13;;;;;;;2.40;1.73;;;;;;;;;;5092988;28;20078;-88
2022/05/18 01:53:39;;;;;;;4.00;1.83;;;;;;;;;;5095155;28;20835;-87
2022/05/18 01:56:07;;;;;;;1.90;1.67;;;;;;;;;;5092013;28;20080;-87
2022/05/18 01:58:32;;;;;;;3.05;1.70;;;;;;;;;;5093731;28;20031;-88
2022/05/18 02:01:01;;;;;;;2.47;1.90;;;;;;;;;;5094332;28;20028;-86
2022/05/18 02:03:26;;;;;;;2.72;1.85;;;;;;;;;;5093552;28;20039;-87
2022/05/18 02:05:52;;;;;;;2.30;1.65;;;;;;;;;;5093071;28;20490;-86
2022/05/18 02:08:19;;;;;;;2.75;1.63;;;;;;;;;;5090349;28;20116;-85
2022/05/18 02:10:45;;;;;;;3.22;2.00;;;;;;;;;;5092286;28;20119;-88
2022/05/18 02:13:11;;;;;;;5.40;3.38;;;;;;;;;;5093978;28;20058;-83
2022/05/18 02:15:36;;;;;;;4.95;4.45;;;;;;;;;;5093745;28;20032;-84
2022/05/18 02:18:04;;;;;;;5.30;4.05;;;;;;;;;;5093573;28;20528;-88
2022/05/18 02:20:30;;;;;;;5.80;4.38;;;;;;;;;;5123243;27;20039;-84
2022/05/18 02:22:56;;;;;;;4.35;3.58;;;;;;;;;;5093121;28;20027;-88
2022/05/18 02:25:22;;;;;;;6.05;4.72;;;;;;;;;;5093536;28;20020;-87
2022/05/18 02:27:47;;;;;;;7.68;4.97;;;;;;;;;;5094324;28;20415;-85
2022/05/18 02:30:14;;;;;;;8.02;5.85;;;;;;;;;;5094155;28;20035;-85
2022/05/18 02:32:48;;;;;;;7.10;5.20;;;;;;;;;;5093454;28;20099;-88
2022/05/18 02:35:14;;;;;;;8.88;6.57;;;;;;;;;;5095925;28;20035;-85
2022/05/18 02:37:39;;;;;;;8.43;6.80;;;;;;;;;;5103313;28;20032;-86
2022/05/18 02:40:07;;;;;;;8.48;6.45;;;;;;;;;;5094394;28;20023;-84
2022/05/18 02:42:33;;;;;;;8.57;6.75;;;;;;;;;;5093596;28;20559;-86
2022/05/18 02:44:59;;;;;;;9.32;7.28;;;;;;;;;;5097279;28;20020;-87
2022/05/18 02:47:25;;;;;;;9.75;6.85;;;;;;;;;;5124873;27;20032;-86
2022/05/18 02:49:51;;;;;;;8.90;7.13;;;;;;;;;;5100908;28;20032;-91
2022/05/18 02:52:20;;;;;;;9.82;7.72;;;;;;;;;;5097005;28;20028;-85
2022/05/18 02:57:33;;;;;;;8.02;7.10;;;;;;;;;;5099517;28;20379;-89
2022/05/18 02:59:58;;;;;;;7.85;6.03;;;;;;;;;;5099024;28;20047;-87
2022/05/18 03:02:27;;;;;;;7.70;6.65;;;;;;;;;;5108023;28;20051;-91
2022/05/18 03:04:52;;;;;;;6.75;5.45;;;;;;;;;;5093674;28;20019;-86
2022/05/18 03:07:18;;;;;;;6.55;5.28;;;;;;;;;;5092642;28;20081;-84
2022/05/18 03:09:46;;;;;;;6.65;5.22;;;;;;;;;;5092490;28;20030;-89
2022/05/18 03:12:11;;;;;;;7.72;4.57;;;;;;;;;;5090277;28;20087;-86
2022/05/18 03:14:37;;;;;;;6.68;4.88;;;;;;;;;;5091263;28;20059;-86
2022/05/18 03:17:03;;;;;;;6.15;5.30;;;;;;;;;;5089459;28;20027;-84
2022/05/18 03:19:28;;;;;;;5.80;5.05;;;;;;;;;;5090261;28;20118;-88
2022/05/18 03:24:38;;;;;;;6.78;5.22;;;;;;;;;;5092557;28;20034;-87
2022/05/18 03:27:04;;;;;;;6.95;4.60;;;;;;;;;;5124934;27;20036;-85
2022/05/18 03:29:30;;;;;;;7.18;4.20;;;;;;;;;;5090718;28;20024;-89
2022/05/18 03:31:55;;;;;;;5.22;4.63;;;;;;;;;;5093083;28;20024;-86
2022/05/18 03:34:21;;;;;;;5.10;4.00;;;;;;;;;;5092908;28;20028;-85
2022/05/18 03:36:48;;;;;;;5.38;4.50;;;;;;;;;;5091422;28;20375;-89
2022/05/18 03:39:18;;;;;;;5.13;4.32;;;;;;;;;;5074446;28;20028;-89
2022/05/18 03:41:44;;;;;;;5.85;4.50;;;;;;;;;;5091122;28;20111;-85
2022/05/18 03:44:10;;;;;;;8.77;5.38;;;;;;;;;;5091973;28;20383;-87
2022/05/18 03:46:37;;;;;;;5.03;4.45;;;;;;;;;;5094008;28;20077;-86
2022/05/18 03:49:04;;;;;;;7.55;4.93;;;;;;;;;;5092527;28;20375;-88
2022/05/18 03:51:30;;;;;;;6.40;5.07;;;;;;;;;;5093988;28;20468;-87
2022/05/18 03:53:56;;;;;;;6.60;5.20;;;;;;;;;;5089543;28;20031;-86
2022/05/18 03:56:22;;;;;;;7.20;5.10;;;;;;;;;;5088946;28;20033;-89
2022/05/18 03:58:47;;;;;;;5.72;4.20;;;;;;;;;;5093868;28;20411;-85
2022/05/18 04:01:13;;;;;;;5.38;4.68;;;;;;;;;;5087637;28;20115;-86
2022/05/18 04:03:41;;;;;;;6.97;4.65;;;;;;;;;;5092907;28;20127;-86
2022/05/18 04:06:13;;;;;;;5.93;4.90;;;;;;;;;;5090705;28;20062;-89
2022/05/18 04:08:42;;;;;;;5.20;4.20;;;;;;;;;;5092893;28;20426;-88
2022/05/18 04:11:10;;;;;;;6.13;4.30;;;;;;;;;;5088560;28;20046;-86
2022/05/18 04:13:36;;;;;;;5.80;4.43;;;;;;;;;;5092833;28;20267;-85
2022/05/18 04:16:02;;;;;;;6.32;5.13;;;;;;;;;;5093893;28;20032;-89
2022/05/18 04:18:27;;;;;;;6.38;4.57;;;;;;;;;;5093018;28;20061;-83
2022/05/18 04:20:54;;;;;;;6.65;5.05;;;;;;;;;;5091292;28;20028;-86
2022/05/18 04:23:23;;;;;;;8.13;5.22;;;;;;;;;;5092504;28;20029;-87
2022/05/18 04:25:49;;;;;;;6.60;5.32;;;;;;;;;;5089644;28;20494;-85
2022/05/18 04:28:15;;;;;;;7.63;5.88;;;;;;;;;;5086572;28;20032;-89
2022/05/18 04:30:45;;;;;;;6.90;5.35;;;;;;;;;;5090788;28;20028;-89
2022/05/18 04:33:22;;;;;;;7.30;5.50;;;;;;;;;;5092733;28;20016;-88
2022/05/18 04:35:50;;;;;;;7.75;6.57;;;;;;;;;;5095518;28;20372;-88
2022/05/18 04:38:18;;;;;;;8.88;7.30;;;;;;;;;;5094048;28;20089;-87
2022/05/18 04:40:43;;;;;;;8.18;6.47;;;;;;;;;;5095031;28;20085;-86
2022/05/18 04:43:09;;;;;;;7.80;6.35;;;;;;;;;;5094855;28;20020;-89
2022/05/18 04:45:36;;;;;;;7.82;6.00;;;;;;;;;;5094096;28;20102;-85
2022/05/18 04:48:01;;;;;;;8.23;7.28;;;;;;;;;;5095935;28;20024;-85
2022/05/18 04:50:27;;;;;;;9.65;8.27;;;;;;;;;;5094592;28;20494;-85
2022/05/18 04:52:52;;;;;;;8.32;6.10;;;;;;;;;;5095487;28;20028;-85
2022/05/18 04:55:23;;;;;;;8.95;6.57;;;;;;;;;;5095582;28;20024;-89
2022/05/18 04:57:52;;;;;;;9.10;7.88;;;;;;;;;;5093786;28;20091;-91
2022/05/18 05:00:18;;;;;;;8.93;7.50;;;;;;;;;;5093761;28;20031;-86
2022/05/18 05:02:46;;;;;;;9.60;7.25;;;;;;;;;;5095062;28;20044;-88
2022/05/18 05:05:14;;;;;;;12.07;8.30;;;;;;;;;;5095661;28;20036;-92
2022/05/18 05:07:39;;;;;;;9.10;7.40;;;;;;;;;;5097306;28;20032;-87
2022/05/18 05:10:07;;;;;;;13.90;8.27;;;;;;;;;;5094550;28;20108;-85
2022/05/18 05:12:33;;;;;;;10.95;8.45;;;;;;;;;;5098284;28;20024;-85
2022/05/18 05:14:59;;;;;;;11.43;8.70;;;;;;;;;;5095767;28;20028;-85
2022/05/18 05:17:25;;;;;;;15.20;13.68;;;;;;;;;;5095777;28;20035;-86
2022/05/18 05:19:51;;;;;;;13.55;10.20;;;;;;;;;;5097645;28;20080;-83
2022/05/18 05:22:16;;;;;;;15.23;10.07;;;;;;;;;;5098980;28;20110;-89
2022/05/18 05:24:43;;;;;;;12.02;9.23;;;;;;;;;;5099232;28;20371;-88
2022/05/18 05:27:08;;;;;;;11.32;9.70;;;;;;;;;;5096148;28;20490;-85
2022/05/18 05:29:34;;;;;;;11.77;10.10;;;;;;;;;;5091298;28;20114;-88
2022/05/18 05:32:06;;;;;;;13.07;10.40;;;;;;;;;;5091150;28;20020;-86
2022/05/18 05:34:31;;;;;;;15.50;12.13;;;;;;;;;;5095779;28;20023;-85
2022/05/18 05:36:57;;;;;;;12.05;10.23;;;;;;;;;;5096448;28;20364;-88
2022/05/18 05:39:22;;;;;;;16.00;11.68;;;;;;;;;;5093857;28;20361;-81
2022/05/18 05:41:48;;;;;;;11.52;9.20;;;;;;;;;;5097618;28;20043;-87
2022/05/18 05:44:14;;;;;;;14.80;11.43;;;;;;;;;;5096723;28;20024;-87
2022/05/18 05:46:39;;;;;;;13.48;10.52;;;;;;;;;;5096128;28;20028;-85
2022/05/18 05:49:14;;;;;;;12.05;9.48;;;;;;;;;;5101644;28;20031;-85
2022/05/18 05:51:40;;;;;;;15.27;10.75;;;;;;;;;;5110800;28;20032;-88
2022/05/18 05:54:05;;;;;;;12.80;9.57;;;;;;;;;;5102397;28;20020;-88
2022/05/18 05:56:31;;;;;;;13.15;9.63;;;;;;;;;;5096614;28;20024;-83
2022/05/18 05:58:57;;;;;;;12.63;9.02;;;;;;;;;;5101293;28;20023;-85
2022/05/18 06:01:22;;;;;;;10.18;6.65;;;;;;;;;;5100601;28;20485;-84
2022/05/18 06:03:51;;;;;;;9.02;5.93;;;;;;;;;;5095359;28;20032;-88
2022/05/18 06:06:19;;;;;;;7.72;5.93;;;;;;;;;;5097498;28;20042;-86
2022/05/18 06:08:45;;;;;;;11.43;8.85;;;;;;;;;;5096354;28;20024;-89
2022/05/18 06:11:11;;;;;;;8.88;6.78;;;;;;;;;;5096638;28;20443;-89
2022/05/18 06:13:36;;;;;;;7.38;5.78;;;;;;;;;;5095362;28;20016;-86
2022/05/18 06:16:03;;;;;;;8.43;6.10;;;;;;;;;;5096392;28;20040;-86
2022/05/18 06:18:35;;;;;;;10.55;7.43;;;;;;;;;;5096312;28;20356;-90
2022/05/18 06:21:01;;;;;;;11.52;7.55;;;;;;;;;;5092473;28;20043;-87
2022/05/18 06:23:27;;;;;;;12.95;9.18;;;;;;;;;;5093026;28;20024;-86
2022/05/18 06:25:52;;;;;;;17.33;12.43;;;;;;;;;;5096736;28;20518;-88
2022/05/18 06:28:18;;;;;;;11.57;10.35;;;;;;;;;;5092965;28;20038;-90
2022/05/18 06:30:44;;;;;;;10.95;9.00;;;;;;;;;;5093897;28;20110;-88
2022/05/18 06:33:10;;;;;;;13.25;9.00;;;;;;;;;;5095121;28;20015;-84
2022/05/18 06:35:35;;;;;;;11.95;8.55;;;;;;;;;;5097446;28;20074;-87
2022/05/18 06:38:09;;;;;;;18.42;11.25;;;;;;;;;;5095140;28;20034;-89
2022/05/18 06:43:21;;;;;;;11.98;8.98;;;;;;;;;;5098205;28;20486;-87
2022/05/18 06:45:46;;;;;;;14.95;11.20;;;;;;;;;;5095369;28;20020;-87
2022/05/18 06:48:12;;;;;;;16.10;10.07;;;;;;;;;;5095928;28;20103;-87
2022/05/18 06:50:37;;;;;;;15.07;9.85;;;;;;;;;;5093087;28;20023;-87
2022/05/18 06:53:03;;;;;;;13.27;9.57;;;;;;;;;;5096484;28;20520;-85
2022/05/18 06:55:28;;;;;;;13.95;9.88;;;;;;;;;;5096197;28;20482;-86
2022/05/18 06:57:54;;;;;;;18.73;12.68;;;;;;;;;;5092674;28;20024;-85
2022/05/18 07:00:19;;;;;;;18.85;10.50;;;;;;;;;;5095063;28;20123;-89
2022/05/18 07:02:45;;;;;;;19.05;12.13;;;;;;;;;;5086125;28;20051;-89
2022/05/18 07:05:10;;;;;;;18.02;10.45;;;;;;;;;;5096811;28;20020;-88
2022/05/18 07:07:37;;;;;;;20.08;10.70;;;;;;;;;;5096063;28;20034;-85
2022/05/18 07:10:03;;;;;;;11.88;9.52;;;;;;;;;;5094407;28;20469;-85
2022/05/18 07:12:29;;;;;;;29.77;14.20;;;;;;;;;;5090343;28;20031;-84
2022/05/18 07:25:41;;;;;;;13.77;8.80;;;;;;;;;;4972373;28;20113;-88
2022/05/18 07:28:51;;;;;;;11.68;8.68;;;;;;;;;;4943777;28;20050;-87
2022/05/18 07:38:40;;;;;;;;;;;;;;;;;;;;;
2022/05/18 07:41:20;;;;;;;10.50;8.43;;;;;;;;;;4992011;28;20483;-91
2022/05/18 07:52:05;;;;;;;8.50;7.10;;;;;;;;;;4953367;29;20112;-89
2022/05/18 07:55:21;;;;;;;11.70;8.65;;;;;;;;;;4918822;29;20035;-89
2022/05/18 08:01:44;;;;;;;9.88;7.63;;;;;;;;;;4882037;29;20096;-85
2022/05/18 08:04:46;;;;;;;;;;;;;;;;;;;;;
2022/05/18 08:07:14;;;;;;;13.23;7.40;;;;;;;;;;4941632;28;20097;-86
2022/05/18 08:15:05;;;;;;;8.65;6.30;;;;;;;;;;5017805;28;20054;-86
2022/05/18 08:15:09;;;;;;;7.63;6.70;;;;;;;;;;5073145;28;20028;-87
2022/05/18 08:17:35;;;;;;;7.55;6.10;;;;;;;;;;5056604;28;20063;-91
2022/05/18 08:20:04;;;;;;;8.57;7.00;;;;;;;;;;5056791;28;20028;-85
2022/05/18 08:22:30;;;;;;;8.63;6.47;;;;;;;;;;5072164;28;20578;-89
2022/05/18 08:24:55;;;;;;;11.63;8.60;;;;;;;;;;5083578;28;20167;-88
2022/05/18 08:27:21;;;;;;;10.05;7.13;;;;;;;;;;5058967;28;20063;-85
2022/05/18 08:29:46;;;;;;;8.13;6.35;;;;;;;;;;5053750;28;20118;-88
2022/05/18 08:32:12;;;;;;;6.65;5.95;;;;;;;;;;5052380;28;20043;-85
2022/05/18 08:34:37;;;;;;;7.80;5.03;;;;;;;;;;5053584;28;20429;-87
2022/05/18 08:37:03;;;;;;;7.40;5.70;;;;;;;;;;5055893;28;20095;-86
2022/05/18 08:39:28;;;;;;;7.00;5.00;;;;;;;;;;5052102;28;20090;-89
2022/05/18 08:41:57;;;;;;;6.03;5.13;;;;;;;;;;5053650;28;20052;-88
2022/05/18 08:44:28;;;;;;;7.07;5.57;;;;;;;;;;5052235;28;20140;-88
2022/05/18 08:47:16;;;;;;;8.00;6.95;;;;;;;;;;5052798;28;20024;-88
2022/05/18 08:49:55;;;;;;;6.75;5.50;;;;;;;;;;5050617;28;20040;-86
2022/05/18 08:52:58;;;;;;;6.35;5.28;;;;;;;;;;5054668;28;20039;-88
2022/05/18 08:55:29;;;;;;;5.78;5.10;;;;;;;;;;5052608;28;20062;-87
2022/05/18 08:57:58;;;;;;;7.38;5.13;;;;;;;;;;5051877;28;20362;-87
2022/05/18 09:00:40;;;;;;;7.47;5.47;;;;;;;;;;5055938;28;20024;-87
2022/05/18 09:03:15;;;;;;;7.97;5.43;;;;;;;;;;5060620;28;20036;-88
2022/05/18 09:05:50;;;;;;;6.95;4.60;;;;;;;;;;5094416;28;20032;-83
2022/05/18 09:08:30;;;;;;;6.32;4.93;;;;;;;;;;5094807;28;20072;-87
2022/05/18 09:11:34;;;;;;;6.20;5.60;;;;;;;;;;5089777;28;20199;-86
2022/05/18 09:14:00;;;;;;;7.32;4.50;;;;;;;;;;5046769;28;20028;-88
2022/05/18 09:16:50;;;;;;;7.82;4.60;;;;;;;;;;5047795;28;20369;-90
2022/05/18 09:19:35;;;;;;;5.32;4.78;;;;;;;;;;5060122;28;20503;-87
2022/05/18 09:22:39;;;;;;;6.00;4.40;;;;;;;;;;5060078;28;20062;-86
2022/05/18 09:25:31;;;;;;;9.18;3.65;;;;;;;;;;5073551;28;20299;-88
2022/05/18 09:28:15;;;;;;;5.93;4.70;;;;;;;;;;5087884;28;20066;-86
2022/05/18 09:31:08;;;;;;;5.25;4.65;;;;;;;;;;5091400;28;20073;-89
2022/05/18 09:33:52;;;;;;;5.47;4.72;;;;;;;;;;5094142;28;20028;-87
2022/05/18 09:36:39;;;;;;;5.50;4.05;;;;;;;;;;5094182;28;20053;-87
2022/05/18 09:39:14;;;;;;;5.25;4.15;;;;;;;;;;5091553;28;20032;-88
2022/05/18 09:41:56;;;;;;;4.82;3.65;;;;;;;;;;5093678;28;20510;-87
2022/05/18 09:45:02;;;;;;;4.43;3.47;;;;;;;;;;5088994;28;20483;-84
2022/05/18 09:47:32;;;;;;;6.07;4.38;;;;;;;;;;5094351;28;20050;-87
2022/05/18 09:50:12;;;;;;;;;;;;;;;;;;;;;
2022/05/18 09:52:41;;;;;;;4.63;4.00;;;;;;;;;;5094400;28;20024;-87
2022/05/18 09:55:11;;;;;;;4.75;4.28;;;;;;;;;;5088087;28;20107;-88
2022/05/18 09:57:45;;;;;;;6.47;3.90;;;;;;;;;;5093053;28;20110;-87
2022/05/18 10:00:19;;;;;;;6.13;4.28;;;;;;;;;;5090284;28;20055;-88
2022/05/18 10:07:27;;;;;;;6.03;4.38;;;;;;;;;;5090970;28;20047;-86
2022/05/18 10:08:42;;;;;;;5.18;4.35;;;;;;;;;;5093001;28;20092;-84
2022/05/18 10:11:14;;;;;;;6.93;4.10;;;;;;;;;;5091319;28;20024;-82
2022/05/18 10:14:11;;;;;;;5.35;3.80;;;;;;;;;;5092373;28;20031;-83
2022/05/18 10:16:59;;;;;;;6.22;3.95;;;;;;;;;;5092667;28;20177;-83
2022/05/18 10:19:56;;;;;;;6.82;3.78;;;;;;;;;;5089022;28;20031;-82
2022/05/18 10:22:28;;;;;;;4.07;3.65;;;;;;;;;;5076034;28;20040;-85
2022/05/18 10:24:57;;;;;;;5.22;2.83;;;;;;;;;;5086499;28;20036;-83
2022/05/18 10:27:28;;;;;;;4.90;3.75;;;;;;;;;;5089686;28;20487;-82
2022/05/18 10:30:08;;;;;;;5.55;3.92;;;;;;;;;;5089501;28;20463;-86
2022/05/18 10:32:36;;;;;;;6.40;3.40;;;;;;;;;;5090085;28;20020;-83
2022/05/18 10:35:03;;;;;;;4.65;3.30;;;;;;;;;;5087693;28;20305;-83
2022/05/18 10:37:37;;;;;;;4.43;3.75;;;;;;;;;;5091166;28;20024;-84
2022/05/18 10:40:14;;;;;;;4.80;3.45;;;;;;;;;;5090158;28;20020;-83
2022/05/18 10:42:42;;;;;;;7.13;3.90;;;;;;;;;;5091173;28;20020;-84
2022/05/18 10:45:26;;;;;;;4.50;3.50;;;;;;;;;;5090089;28;20116;-84
2022/05/18 10:47:56;;;;;;;5.35;3.33;;;;;;;;;;5092248;28;20058;-83
2022/05/18 10:50:23;;;;;;;4.93;2.45;;;;;;;;;;5088862;28;20043;-85
2022/05/18 10:52:49;;;;;;;3.50;2.53;;;;;;;;;;5084976;28;20464;-82
2022/05/18 10:55:19;;;;;;;4.28;3.10;;;;;;;;;;5083967;28;20051;-85
2022/05/18 10:58:22;;;;;;;6.18;3.50;;;;;;;;;;5084226;28;20063;-82
2022/05/18 11:00:55;;;;;;;12.55;4.65;;;;;;;;;;5087170;28;20039;-83
2022/05/18 11:03:37;;;;;;;43.63;6.05;;;;;;;;;;5087834;28;20044;-82
2022/05/18 11:06:23;;;;;;;6.82;3.30;;;;;;;;;;5083741;28;20020;-83
2022/05/18 11:08:50;;;;;;;6.05;3.50;;;;;;;;;;5085267;28;20395;-83
2022/05/18 11:11:33;;;;;;;7.40;4.47;;;;;;;;;;5083753;28;20198;-84
2022/05/18 11:14:16;;;;;;;8.20;5.22;;;;;;;;;;5121226;27;20016;-85
2022/05/18 11:17:16;;;;;;;6.53;5.10;;;;;;;;;;5090390;28;20036;-83
2022/05/18 11:19:44;;;;;;;8.98;6.32;;;;;;;;;;5089567;28;20040;-86
2022/05/18 11:22:26;;;;;;;9.00;5.60;;;;;;;;;;5086412;28;20066;-85
2022/05/18 11:25:17;;;;;;;7.93;5.57;;;;;;;;;;5083629;28;20055;-88
2022/05/18 11:27:49;;;;;;;7.47;5.13;;;;;;;;;;5085071;28;20085;-86
2022/05/18 11:30:52;;;;;;;4.60;3.95;;;;;;;;;;5085813;28;20024;-86
2022/05/18 11:33:46;;;;;;;3.58;3.13;;;;;;;;;;5077799;28;20485;-85
2022/05/18 11:36:44;;;;;;;4.72;3.00;;;;;;;;;;5090507;28;20024;-86
2022/05/18 11:39:40;;;;;;;5.60;2.65;;;;;;;;;;5054090;28;20041;-86
2022/05/18 11:42:08;;;;;;;4.63;3.17;;;;;;;;;;5102944;28;20032;-85
2022/05/18 11:44:55;;;;;;;4.05;2.70;;;;;;;;;;5086214;28;20538;-86
2022/05/18 11:47:45;;;;;;;3.80;3.08;;;;;;;;;;5085799;28;20024;-87
2022/05/18 11:50:43;;;;;;;3.80;2.22;;;;;;;;;;5089273;28;20081;-87
2022/05/18 11:53:17;;;;;;;3.65;2.65;;;;;;;;;;5084137;28;20024;-85
2022/05/18 11:56:17;;;;;;;3.47;2.30;;;;;;;;;;5088836;28;20078;-85
2022/05/18 11:59:24;;;;;;;3.83;2.10;;;;;;;;;;5086900;28;20036;-85
2022/05/18 12:01:56;;;;;;;3.08;2.20;;;;;;;;;;5087175;28;20020;-86
2022/05/18 12:04:40;;;;;;;3.38;2.50;;;;;;;;;;5090120;28;20040;-86
2022/05/18 12:07:22;;;;;;;2.70;1.58;;;;;;;;;;5090263;28;20051;-85
2022/05/18 12:10:26;;;;;;;2.85;2.13;;;;;;;;;;5089635;28;20498;-85
2022/05/18 12:13:10;;;;;;;4.75;3.40;;;;;;;;;;5089878;28;20495;-83
2022/05/18 12:15:47;;;;;;;3.00;2.70;;;;;;;;;;5090833;28;20059;-86
2022/05/18 12:18:39;;;;;;;2.95;2.05;;;;;;;;;;5084654;28;20043;-84
2022/05/18 12:21:11;;;;;;;3.67;2.85;;;;;;;;;;5089994;28;20031;-84
2022/05/18 12:23:41;;;;;;;3.83;2.80;;;;;;;;;;5088651;28;20028;-84
2022/05/18 12:26:07;;;;;;;3.08;2.58;;;;;;;;;;5087136;28;20073;-85
2022/05/18 12:28:33;;;;;;;3.90;2.63;;;;;;;;;;5090348;28;20095;-84
2022/05/18 12:31:00;;;;;;;5.20;3.28;;;;;;;;;;5088088;28;20498;-87
2022/05/18 12:33:26;;;;;;;5.47;3.33;;;;;;;;;;5084505;28;20540;-84
2022/05/18 12:36:22;;;;;;;4.80;3.50;;;;;;;;;;5089930;28;20026;-85
2022/05/18 12:38:54;;;;;;;3.42;2.60;;;;;;;;;;5089435;28;20020;-85
2022/05/18 12:42:13;;;;;;;;;;;;;;;;;;;;;
2022/05/18 13:02:45;;;;;;;1.65;1.40;;;;;;;;;;4938561;28;20041;-88
2022/05/18 13:19:52;;;;;;;2.15;1.40;;;;;;;;;;4968568;28;20039;-86
2022/05/18 13:22:21;;;;;;;1.73;1.42;;;;;;;;;;4988710;28;20042;-86
2022/05/18 13:25:02;;;;;;;2.38;1.50;;;;;;;;;;5058775;28;20507;-86
2022/05/18 13:27:36;;;;;;;2.28;1.75;;;;;;;;;;5083056;28;20032;-86
2022/05/18 13:30:11;;;;;;;3.88;2.10;;;;;;;;;;5075329;28;20844;-86
2022/05/18 13:32:38;;;;;;;1.73;1.60;;;;;;;;;;5075451;28;20020;-85
2022/05/18 13:35:15;;;;;;;3.85;2.80;;;;;;;;;;5094601;28;20113;-87
2022/05/18 13:37:41;;;;;;;3.40;2.63;;;;;;;;;;5093935;28;20083;-84
2022/05/18 13:40:07;;;;;;;5.63;3.13;;;;;;;;;;5098072;28;20024;-87
2022/05/18 13:42:34;;;;;;;3.90;2.80;;;;;;;;;;5097624;28;20027;-85
2022/05/18 13:45:11;;;;;;;4.18;2.42;;;;;;;;;;5080267;28;20054;-85
2022/05/18 13:47:44;;;;;;;3.47;3.05;;;;;;;;;;5103072;28;20107;-85
2022/05/18 13:50:30;;;;;;;5.88;3.45;;;;;;;;;;5089051;28;20046;-84
2022/05/18 13:52:59;;;;;;;4.63;3.55;;;;;;;;;;5085317;28;20031;-84
2022/05/18 13:55:27;;;;;;;4.35;3.13;;;;;;;;;;5086714;28;20023;-85
2022/05/18 13:58:02;;;;;;;5.40;4.13;;;;;;;;;;5084779;28;20110;-86
2022/05/18 14:00:49;;;;;;;3.78;3.25;;;;;;;;;;5073301;28;20039;-85
2022/05/18 14:03:21;;;;;;;4.95;3.45;;;;;;;;;;5071935;28;20040;-82
2022/05/18 14:05:47;;;;;;;3.05;2.35;;;;;;;;;;5093258;28;20116;-85
2022/05/18 14:08:30;;;;;;;4.93;3.60;;;;;;;;;;5074508;28;20026;-85
2022/05/18 14:10:57;;;;;;;3.42;2.92;;;;;;;;;;5084676;28;20036;-87
2022/05/18 14:13:24;;;;;;;4.35;3.40;;;;;;;;;;5075332;28;20383;-87
2022/05/18 14:15:50;;;;;;;5.55;4.07;;;;;;;;;;5072825;28;20035;-88
2022/05/18 14:18:19;;;;;;;4.38;3.38;;;;;;;;;;5069509;28;20028;-87
2022/05/18 14:20:51;;;;;;;3.72;3.22;;;;;;;;;;5075332;28;20030;-87
2022/05/18 14:23:31;;;;;;;16.17;5.85;;;;;;;;;;5074585;28;20544;-87
2022/05/18 14:26:02;;;;;;;10.13;4.47;;;;;;;;;;5088807;28;20086;-86
2022/05/18 14:28:31;;;;;;;3.65;3.15;;;;;;;;;;5087811;28;20024;-88
2022/05/18 14:31:00;;;;;;;15.50;4.80;;;;;;;;;;5071915;28;20024;-86
2022/05/18 14:33:32;;;;;;;37.20;7.85;;;;;;;;;;5093213;28;20039;-90
2022/05/18 14:36:03;;;;;;;100.43;15.75;;;;;;;;;;5093000;28;20533;-88
2022/05/18 14:38:45;;;;;;;7.70;3.80;;;;;;;;;;5093175;28;20479;-87
2022/05/18 14:41:12;;;;;;;18.45;5.28;;;;;;;;;;5088789;28;20020;-89
2022/05/18 14:43:37;;;;;;;64.45;11.05;;;;;;;;;;5072265;28;20051;-87
2022/05/18 14:46:22;;;;;;;43.65;7.95;;;;;;;;;;5073123;28;20121;-87
2022/05/18 14:48:59;;;;;;;8.68;4.18;;;;;;;;;;5077796;28;20024;-86
2022/05/18 14:51:43;;;;;;;8.82;4.25;;;;;;;;;;5092988;28;20027;-87
2022/05/18 14:54:18;;;;;;;9.43;3.88;;;;;;;;;;5089969;28;20020;-86
2022/05/18 14:56:49;;;;;;;6.63;3.88;;;;;;;;;;5091710;28;20534;-89
2022/05/18 14:59:18;;;;;;;4.18;3.63;;;;;;;;;;5071354;28;20020;-84
2022/05/18 15:01:47;;;;;;;5.65;3.72;;;;;;;;;;5090275;28;20028;-87
2022/05/18 15:04:33;;;;;;;5.65;3.03;;;;;;;;;;5084561;28;20485;-87
2022/05/18 15:07:04;;;;;;;9.52;4.60;;;;;;;;;;5091426;28;20033;-89
2022/05/18 15:09:40;;;;;;;6.40;4.78;;;;;;;;;;5092067;28;20035;-85
2022/05/18 15:12:12;;;;;;;6.80;4.80;;;;;;;;;;5073936;28;20424;-87
2022/05/18 15:15:13;;;;;;;9.63;4.35;;;;;;;;;;5092493;28;20119;-89
2022/05/18 15:17:46;;;;;;;6.93;4.63;;;;;;;;;;5088254;28;20077;-85
2022/05/18 15:20:20;;;;;;;4.57;3.38;;;;;;;;;;5073046;28;20114;-86
2022/05/18 15:23:27;;;;;;;4.18;3.50;;;;;;;;;;5090228;28;20031;-85
2022/05/18 15:25:59;;;;;;;4.80;3.53;;;;;;;;;;5039142;28;20057;-87
2022/05/18 15:28:28;;;;;;;4.35;3.35;;;;;;;;;;5071744;28;20020;-86
2022/05/18 15:31:02;;;;;;;5.25;3.33;;;;;;;;;;5087621;28;20383;-84
2022/05/18 15:33:43;;;;;;;5.32;3.80;;;;;;;;;;5089389;28;20020;-89
2022/05/18 15:36:09;;;;;;;4.35;3.40;;;;;;;;;;5068775;28;20035;-84
2022/05/18 15:38:38;;;;;;;4.75;2.88;;;;;;;;;;5088643;28;20165;-86
2022/05/18 15:41:04;;;;;;;5.25;3.13;;;;;;;;;;5064723;28;20502;-85
2022/05/18 15:43:29;;;;;;;4.70;3.30;;;;;;;;;;5067083;28;20020;-86
2022/05/18 15:46:01;;;;;;;3.67;2.55;;;;;;;;;;5091596;28;20529;-87
2022/05/18 15:48:28;;;;;;;3.72;2.47;;;;;;;;;;5089106;28;20484;-87
2022/05/18 15:50:54;;;;;;;8.77;2.92;;;;;;;;;;5092061;28;20024;-87
2022/05/18 15:53:33;;;;;;;4.20;2.95;;;;;;;;;;5089988;28;20048;-87
2022/05/18 15:56:04;;;;;;;4.00;2.83;;;;;;;;;;5068225;28;20410;-86
2022/05/18 15:58:30;;;;;;;3.42;2.78;;;;;;;;;;5091531;28;20023;-85
2022/05/18 16:00:56;;;;;;;3.60;2.33;;;;;;;;;;5070644;28;20468;-87
2022/05/18 16:03:21;;;;;;;3.05;2.50;;;;;;;;;;5068792;28;20048;-86
2022/05/18 16:05:47;;;;;;;5.47;1.80;;;;;;;;;;5060094;28;20143;-85
2022/05/18 16:08:12;;;;;;;2.10;1.52;;;;;;;;;;5054113;28;20032;-87
2022/05/18 16:10:38;;;;;;;4.32;1.50;;;;;;;;;;5066695;28;20033;-85
2022/05/18 16:13:05;;;;;;;3.05;1.25;;;;;;;;;;5070374;28;20020;-85
2022/05/18 16:15:31;;;;;;;2.15;1.27;;;;;;;;;;5056697;28;20112;-84
2022/05/18 16:17:58;;;;;;;4.93;1.55;;;;;;;;;;5074079;28;20043;-86
2022/05/18 16:20:24;;;;;;;3.47;1.98;;;;;;;;;;5053645;28;20539;-87
2022/05/18 16:22:50;;;;;;;5.30;1.65;;;;;;;;;;5067819;28;20108;-88
2022/05/18 16:25:30;;;;;;;3.92;1.77;;;;;;;;;;5084527;28;20029;-87
2022/05/18 16:27:56;;;;;;;;;;;;;;;;;;5073230;28;20420;-87
2022/05/18 16:30:22;;;;;;;2.15;0.70;;;;;;;;;;5072094;28;19957;-89